Time;durP1;ratioP1;P1;durP2;ratioP2;P2;SDS_P1;SDS_P2;PMS_P1;PMS_P2;Temp;Humidity;BMP_temperature;BMP_pressure;BME280_temperature;BME280_humidity;BME280_pressure;Samples;Min_cycle;Max_cycle;Signal;HPM_P1;HPM_P2
2022/03/11 00:01:55;;;;;;;7.57;5.40;;;4.10;1.00;;;;;;5134360;27;20461;-68
2022/03/11 00:04:23;;;;;;;7.50;4.57;;;4.00;1.00;;;;;;5134147;27;20506;-67
2022/03/11 00:06:50;;;;;;;10.50;5.60;;;3.90;1.00;;;;;;5134683;27;20439;-67
2022/03/11 00:09:17;;;;;;;6.60;5.40;;;4.00;1.00;;;;;;5134469;27;20446;-67
2022/03/11 00:11:44;;;;;;;7.57;5.00;;;3.70;1.00;;;;;;5133762;27;20934;-67
2022/03/11 00:14:11;;;;;;;6.03;4.13;;;3.50;1.00;;;;;;5133997;27;20807;-67
2022/03/11 00:16:38;;;;;;;7.33;4.50;;;3.80;1.00;;;;;;5133747;27;20862;-69
2022/03/11 00:19:05;;;;;;;4.83;3.53;;;3.80;1.00;;;;;;5134191;27;20486;-67
2022/03/11 00:21:34;;;;;;;7.23;4.40;;;3.80;1.00;;;;;;5133470;27;20482;-67
2022/03/11 00:24:01;;;;;;;6.57;4.40;;;3.70;1.00;;;;;;5133743;27;21015;-67
2022/03/11 00:26:28;;;;;;;6.87;3.90;;;3.60;1.00;;;;;;5133434;27;20457;-68
2022/03/11 00:28:55;;;;;;;9.63;4.80;;;3.70;1.00;;;;;;5133604;27;20954;-67
2022/03/11 00:31:22;;;;;;;6.20;4.20;;;3.60;1.00;;;;;;5134387;27;20442;-67
2022/03/11 00:33:49;;;;;;;6.40;4.53;;;3.50;1.00;;;;;;5133523;27;20517;-67
2022/03/11 00:36:16;;;;;;;6.20;4.20;;;3.40;1.00;;;;;;5120098;27;20449;-67
2022/03/11 00:38:44;;;;;;;8.60;3.80;;;3.20;1.00;;;;;;5132549;27;20534;-67
2022/03/11 00:41:11;;;;;;;6.57;4.90;;;3.30;1.00;;;;;;5133427;27;20522;-68
2022/03/11 00:43:38;;;;;;;7.13;4.23;;;3.40;1.00;;;;;;5132194;27;20466;-67
2022/03/11 00:46:05;;;;;;;4.07;3.17;;;3.30;1.00;;;;;;5133121;27;21053;-67
2022/03/11 00:48:32;;;;;;;6.37;3.93;;;3.10;1.00;;;;;;5132875;27;20933;-67
2022/03/11 00:50:59;;;;;;;6.63;3.80;;;3.40;1.00;;;;;;5133391;27;20541;-67
2022/03/11 00:53:27;;;;;;;5.47;4.33;;;3.40;1.00;;;;;;5132136;27;20450;-68
2022/03/11 00:55:55;;;;;;;5.50;4.43;;;3.50;1.00;;;;;;5133382;27;20523;-67
2022/03/11 00:58:22;;;;;;;5.60;4.10;;;3.50;1.00;;;;;;5133382;27;20453;-67
2022/03/11 01:00:49;;;;;;;6.53;4.20;;;3.20;1.00;;;;;;5132712;27;20451;-67
2022/03/11 01:03:16;;;;;;;6.83;3.90;;;3.30;1.00;;;;;;5132807;27;20844;-67
2022/03/11 01:05:43;;;;;;;6.90;4.17;;;3.20;1.00;;;;;;5131597;27;20508;-67
2022/03/11 01:08:10;;;;;;;5.10;4.23;;;3.30;1.00;;;;;;5133361;27;20543;-67
2022/03/11 01:10:38;;;;;;;6.80;4.40;;;3.10;1.00;;;;;;5132701;27;20451;-67
2022/03/11 01:13:08;;;;;;;6.53;4.23;;;3.10;1.00;;;;;;5132670;27;20454;-67
2022/03/11 01:15:35;;;;;;;9.20;4.90;;;3.20;1.00;;;;;;5131952;27;20446;-67
2022/03/11 01:18:02;;;;;;;7.07;4.87;;;3.40;1.00;;;;;;5132996;27;20445;-68
2022/03/11 01:20:29;;;;;;;6.00;4.17;;;3.30;1.00;;;;;;5132271;27;20451;-66
2022/03/11 01:22:56;;;;;;;7.27;5.20;;;3.30;1.00;;;;;;5132869;27;20563;-66
2022/03/11 01:25:23;;;;;;;6.90;4.60;;;3.20;1.00;;;;;;5133008;27;20486;-68
2022/03/11 01:27:50;;;;;;;10.23;4.47;;;3.10;1.00;;;;;;5133246;27;20445;-68
2022/03/11 01:30:19;;;;;;;12.50;5.00;;;3.10;1.00;;;;;;5132665;27;20447;-67
2022/03/11 01:32:45;;;;;;;6.47;3.97;;;3.00;1.00;;;;;;5131834;27;20903;-67
2022/03/11 01:35:12;;;;;;;9.57;5.43;;;3.00;1.00;;;;;;5132979;27;20813;-67
2022/03/11 01:37:39;;;;;;;7.40;4.37;;;3.00;1.70;;;;;;5131582;27;20969;-67
2022/03/11 01:40:08;;;;;;;8.47;4.93;;;2.80;5.60;;;;;;5132623;27;20448;-67
2022/03/11 01:42:36;;;;;;;9.23;5.10;;;2.90;8.90;;;;;;5131402;27;20553;-67
2022/03/11 01:45:05;;;;;;;6.80;4.77;;;;;;;;;;5132468;27;20478;-67
2022/03/11 01:47:34;;;;;;;8.77;5.23;;;;;;;;;;5131721;27;20463;-67
2022/03/11 01:50:01;;;;;;;7.30;4.93;;;;;;;;;;5132389;27;20530;-67
2022/03/11 01:52:28;;;;;;;9.00;5.87;;;;;;;;;;5117812;27;20459;-67
2022/03/11 01:54:56;;;;;;;9.93;6.57;;;;;;;;;;5132345;27;20801;-67
2022/03/11 01:57:23;;;;;;;10.77;6.53;;;;;;;;;;5132069;27;20537;-67
2022/03/11 01:59:50;;;;;;;6.70;5.67;;;;;;;;;;5131271;27;20449;-67
2022/03/11 02:02:18;;;;;;;8.60;5.10;;;;;;;;;;5131990;27;20968;-67
2022/03/11 02:04:46;;;;;;;7.60;5.90;;;;;;;;;;5130801;27;20461;-68
2022/03/11 02:07:14;;;;;;;11.70;6.37;;;;;;;;;;5132269;27;20433;-67
2022/03/11 02:09:41;;;;;;;12.20;7.10;;;;;;;;;;5131542;27;20446;-67
2022/03/11 02:12:08;;;;;;;10.90;6.47;;;;;;;;;;5132400;27;20504;-67
2022/03/11 02:14:36;;;;;;;9.50;6.53;;;;;;;;;;5130965;27;20499;-67
2022/03/11 02:17:03;;;;;;;8.37;5.83;;;;;;;;;;5132091;27;20457;-67
2022/03/11 02:19:30;;;;;;;7.60;5.73;;;;;;;;;;5131128;27;20930;-67
2022/03/11 02:22:00;;;;;;;13.30;6.23;;;;;;;;;;5131683;28;20478;-67
2022/03/11 02:24:30;;;;;;;13.20;6.00;;;;;;;;;;5131132;28;20800;-67
2022/03/11 02:26:58;;;;;;;10.67;5.97;;;;;;;;;;5132036;28;20534;-67
2022/03/11 02:29:25;;;;;;;10.80;6.77;;;;;;;;;;5131396;28;20449;-66
2022/03/11 02:31:52;;;;;;;11.93;6.93;;;;;;;;;;5132182;28;20442;-67
2022/03/11 02:34:19;;;;;;;15.13;7.27;;;;;;;;;;5131552;28;20442;-67
2022/03/11 02:36:46;;;;;;;9.13;6.57;;;;;;;;;;5130901;28;20450;-67
2022/03/11 02:39:14;;;;;;;12.17;7.40;;;;;;;;;;5131734;28;20449;-67
2022/03/11 02:41:43;;;;;;;8.87;6.60;;;;;;;;;;5130926;28;20484;-67
2022/03/11 02:44:11;;;;;;;10.10;7.23;;;;;;;;;;5131012;28;20449;-67
2022/03/11 02:46:38;;;;;;;13.53;7.20;;;;;;;;;;5130828;28;20563;-67
2022/03/11 02:49:05;;;;;;;14.93;7.60;;;;;;;;;;5131547;28;20499;-67
2022/03/11 02:51:32;;;;;;;11.87;7.23;;;;;;;;;;5130866;28;20542;-67
2022/03/11 02:53:59;;;;;;;13.97;8.47;;;;;;;;;;5131188;28;20528;-67
2022/03/11 02:56:27;;;;;;;11.30;7.60;;;;;;;;;;5131421;28;20548;-67
2022/03/11 02:58:55;;;;;;;12.60;7.93;;;;;;;;;;5131317;28;20440;-67
2022/03/11 03:01:22;;;;;;;13.10;7.60;;;;;;;;;;5131612;28;20474;-67
2022/03/11 03:03:50;;;;;;;11.57;7.80;;;;;;;;;;5121187;28;20448;-67
2022/03/11 03:06:17;;;;;;;14.93;8.33;;;;;;;;;;5131071;28;20906;-67
2022/03/11 03:08:44;;;;;;;15.17;9.20;;;;;;;;;;5131129;28;20691;-67
2022/03/11 03:11:11;;;;;;;11.37;7.57;;;;;;;;;;5131715;28;20535;-67
2022/03/11 03:13:38;;;;;;;12.43;8.33;;;;;;;;;;5130585;28;20451;-67
2022/03/11 03:16:07;;;;;;;11.40;8.10;;;;;;;;;;5131424;28;20862;-67
2022/03/11 03:18:34;;;;;;;12.13;7.90;;;;;;;;;;5131144;28;20485;-67
2022/03/11 03:21:01;;;;;;;14.87;8.63;;;;;;;;;;5131137;28;20488;-66
2022/03/11 03:23:28;;;;;;;11.17;8.30;;;;;;;;;;5130306;28;20519;-67
2022/03/11 03:25:56;;;;;;;15.20;8.90;;;;;;;;;;5130977;28;20484;-67
2022/03/11 03:28:23;;;;;;;16.40;10.17;;;;;;;;;;5131861;27;20462;-68
2022/03/11 03:30:51;;;;;;;20.07;9.43;;;;;;;;;;5135032;27;20504;-67
2022/03/11 03:33:19;;;;;;;13.60;9.27;;;;;;;;;;5134956;27;20774;-67
2022/03/11 03:35:46;;;;;;;15.17;9.27;;;;;;;;;;5134733;27;20464;-67
2022/03/11 03:38:13;;;;;;;17.40;9.10;;;;;;;;;;5135080;27;20535;-67
2022/03/11 03:40:41;;;;;;;14.83;9.57;;;;;;;;;;5135667;27;20529;-67
2022/03/11 03:43:08;;;;;;;20.67;9.73;;;;;;;;;;5136450;27;20460;-67
2022/03/11 03:45:35;;;;;;;23.33;10.77;;;;;;;;;;5135486;27;20574;-66
2022/03/11 03:48:02;;;;;;;14.90;8.63;;;;;;;;;;5134754;27;20449;-67
2022/03/11 03:50:31;;;;;;;15.93;9.30;;;;;;;;;;5133954;27;20536;-67
2022/03/11 03:52:58;;;;;;;14.83;10.20;;;;;;;;;;5134684;27;20451;-68
2022/03/11 03:55:25;;;;;;;21.07;9.30;;;;;;;;;;5134369;27;20579;-67
2022/03/11 03:57:52;;;;;;;16.47;10.67;;;;;;;;;;5134272;27;20942;-67
2022/03/11 04:00:19;;;;;;;17.47;10.07;;;;;;;;;;5134339;27;20456;-68
2022/03/11 04:02:47;;;;;;;14.90;8.47;;;;;;;;;;5132972;27;20533;-67
2022/03/11 04:05:14;;;;;;;15.00;10.57;;;;;;;;;;5134282;27;20497;-68
2022/03/11 04:07:44;;;;;;;18.23;11.83;;;;;;;;;;5133567;27;20874;-67
2022/03/11 04:10:11;;;;;;;15.07;10.07;;;;;;;;;;5134641;27;20530;-67
2022/03/11 04:12:38;;;;;;;15.87;11.33;;;;;;;;;;5133755;27;20453;-67
2022/03/11 04:15:06;;;;;;;18.30;11.30;;;;;;;;;;5134146;27;20545;-67
2022/03/11 04:17:33;;;;;;;15.70;11.43;;;;;;;;;;5133850;27;20561;-67
2022/03/11 04:20:01;;;;;;;15.17;10.40;;;;;;;;;;5134431;27;20449;-67
2022/03/11 04:22:28;;;;;;;16.30;10.00;;;;;;;;;;5133339;27;20481;-68
2022/03/11 04:24:56;;;;;;;16.93;11.30;;;;;;;;;;5134448;27;20477;-68
2022/03/11 04:27:24;;;;;;;13.53;9.53;;;;;;;;;;5133912;27;20988;-68
2022/03/11 04:29:51;;;;;;;17.83;10.80;;;;;;;;;;5133648;27;20445;-68
2022/03/11 04:32:18;;;;;;;14.37;11.47;;;;;;;;;;5133590;27;20471;-68
2022/03/11 04:34:45;;;;;;;21.17;11.37;;;;;;;;;;5133523;27;20501;-68
2022/03/11 04:37:13;;;;;;;19.33;11.50;;;;;;;;;;5133970;27;20455;-68
2022/03/11 04:39:40;;;;;;;18.27;11.00;;;;;;;;;;5132970;27;20844;-68
2022/03/11 04:42:10;;;;;;;16.63;11.27;;;;;;;;;;5133435;27;20526;-68
2022/03/11 04:44:37;;;;;;;17.07;11.33;;;;;;;;;;5132721;27;20507;-68
2022/03/11 04:47:05;;;;;;;19.13;11.37;;;;;;;;;;5133246;27;20575;-68
2022/03/11 04:49:32;;;;;;;21.80;12.10;;;;;;;;;;5133067;27;20442;-67
2022/03/11 04:51:59;;;;;;;17.67;10.30;;;;;;;;;;5133101;27;20462;-67
2022/03/11 04:54:26;;;;;;;22.67;11.40;;;;;;;;;;5132316;27;20954;-67
2022/03/11 04:56:54;;;;;;;18.70;12.20;;;;;;;;;;5133471;27;20483;-67
2022/03/11 04:59:22;;;;;;;21.70;12.80;;;;;;;;;;5133278;27;20456;-67
2022/03/11 05:01:49;;;;;;;17.83;11.73;;;;;;;;;;5132360;27;20999;-67
2022/03/11 05:04:16;;;;;;;17.40;12.33;;;;;;;;;;5132812;27;20454;-67
2022/03/11 05:06:43;;;;;;;20.60;13.87;;;;;;;;;;5132529;27;20816;-67
2022/03/11 05:09:11;;;;;;;19.43;12.57;;;;;;;;;;5133493;27;20478;-67
2022/03/11 05:11:38;;;;;;;22.67;11.90;;;;;;;;;;5132537;27;20530;-68
2022/03/11 05:14:05;;;;;;;18.37;11.53;;;;;;;;;;5133207;27;20528;-67
2022/03/11 05:16:34;;;;;;;18.20;11.73;;;;;;;;;;5132091;27;20456;-67
2022/03/11 05:19:01;;;;;;;20.60;12.20;;;;;;;;;;5133233;27;20868;-67
2022/03/11 05:21:28;;;;;;;17.43;11.97;;;;;;;;;;5131898;27;20484;-67
2022/03/11 05:23:55;;;;;;;21.23;13.47;;;;;;;;;;5132735;27;20459;-67
2022/03/11 05:26:25;;;;;;;20.90;12.93;;;;;;;;;;5132954;27;20516;-68
2022/03/11 05:28:53;;;;;;;16.67;13.13;;;;;;;;;;5132643;27;20450;-67
2022/03/11 05:31:20;;;;;;;17.57;12.40;;;;;;;;;;5132728;27;20441;-67
2022/03/11 05:33:49;;;;;;;18.73;11.90;;;;;;;;;;5131962;27;20548;-67
2022/03/11 05:36:17;;;;;;;19.47;11.73;;;;;;;;;;5133013;27;20453;-67
2022/03/11 05:38:44;;;;;;;18.30;12.50;;;;;;;;;;5131623;27;20452;-68
2022/03/11 05:41:11;;;;;;;19.13;12.73;;;;;;;;;;5132608;27;20448;-67
2022/03/11 05:43:39;;;;;;;18.10;12.70;;;;;;;;;;5131199;27;20450;-67
2022/03/11 05:46:06;;;;;;;21.63;11.40;;;;;;;;;;5131871;27;20507;-67
2022/03/11 05:48:33;;;;;;;19.70;11.33;;;;;;;;;;5131521;27;20455;-67
2022/03/11 05:51:02;;;;;;;16.83;11.87;;;;;;;;;;5132324;27;20481;-67
2022/03/11 05:53:29;;;;;;;23.40;12.80;;;;;;;;;;5130277;27;20443;-67
2022/03/11 05:55:56;;;;;;;19.57;11.60;;;;;;;;;;5131932;27;20502;-67
2022/03/11 05:58:23;;;;;;;19.23;10.97;;;;;;;;;;5132233;27;20775;-67
2022/03/11 06:00:51;;;;;;;17.07;12.17;;;;;;;;;;5131633;27;20445;-67
2022/03/11 06:03:18;;;;;;;17.23;10.60;;;;;;;;;;5131572;27;20440;-67
2022/03/11 06:05:45;;;;;;;18.20;11.03;;;;;;;;;;5130991;27;20434;-67
2022/03/11 06:08:14;;;;;;;18.50;11.43;;;;;;;;;;5132099;27;20546;-67
2022/03/11 06:10:42;;;;;;;21.57;11.20;;;;;;;;;;5131263;27;20472;-67
2022/03/11 06:13:09;;;;;;;16.90;10.83;;;;;;;;;;5131503;27;20454;-67
2022/03/11 06:15:36;;;;;;;18.20;10.80;;;;;;;;;;5131766;27;20450;-67
2022/03/11 06:18:04;;;;;;;14.30;10.33;;;;;;;;;;5132379;27;20480;-67
2022/03/11 06:20:32;;;;;;;21.37;11.87;;;;;;;;;;5131596;27;20439;-67
2022/03/11 06:23:00;;;;;;;20.37;12.10;;;;;;;;;;5131891;27;20990;-67
2022/03/11 06:25:29;;;;;;;15.10;10.57;;;;;;;;;;5131474;28;20453;-67
2022/03/11 06:27:56;;;;;;;22.30;11.70;;;;;;;;;;5131634;28;20492;-67
2022/03/11 06:30:23;;;;;;;20.70;12.20;;;;;;;;;;5131952;28;20535;-67
2022/03/11 06:32:51;;;;;;;17.90;12.00;;;;;;;;;;5131302;28;20443;-67
2022/03/11 06:35:19;;;;;;;17.20;11.90;;;;;;;;;;5131723;28;20495;-67
2022/03/11 06:37:47;;;;;;;17.50;11.30;;;;;;;;;;5131061;28;20562;-67
2022/03/11 06:40:14;;;;;;;14.83;10.07;;;;;;;;;;5131354;28;20449;-67
2022/03/11 06:42:44;;;;;;;16.87;9.50;;;;;;;;;;5130324;28;21005;-67
2022/03/11 06:45:11;;;;;;;19.20;10.43;;;;;;;;;;5131295;28;20488;-67
2022/03/11 06:47:39;;;;;;;18.43;12.20;;;;;;;;;;5117219;28;20564;-67
2022/03/11 06:50:07;;;;;;;13.30;9.13;;;;;;;;;;5131317;28;20530;-67
2022/03/11 06:52:34;;;;;;;12.50;9.43;;;;;;;;;;5130722;28;20453;-67
2022/03/11 06:55:01;;;;;;;19.53;10.57;;;;;;;;;;5131567;28;20452;-67
2022/03/11 06:57:29;;;;;;;14.13;8.40;;;;;;;;;;5130796;28;20538;-67
2022/03/11 06:59:57;;;;;;;17.70;9.10;;;;;;;;;;5130936;28;20456;-67
2022/03/11 07:02:24;;;;;;;16.37;9.50;;;;;;;;;;5130870;28;20452;-67
2022/03/11 07:04:51;;;;;;;17.57;8.80;;;;;;;;;;5132951;27;20446;-67
2022/03/11 07:07:19;;;;;;;14.90;10.10;;;;;;;;;;5135712;27;20482;-67
2022/03/11 07:09:46;;;;;;;14.30;9.10;;;;;;;;;;5135197;27;20482;-68
2022/03/11 07:12:13;;;;;;;10.97;8.77;;;;;;;;;;5135377;27;20489;-67
2022/03/11 07:14:41;;;;;;;15.03;8.60;;;;;;;;;;5135007;27;20529;-67
2022/03/11 07:17:10;;;;;;;14.07;8.53;;;;;;;;;;5135670;27;20449;-67
2022/03/11 07:19:37;;;;;;;11.17;7.63;;;;;;;;;;5134747;27;20453;-68
2022/03/11 07:22:06;;;;;;;12.90;8.57;;;;;;;;;;5134934;27;20678;-67
2022/03/11 07:24:33;;;;;;;11.17;7.43;;;;;;;;;;5134781;27;20446;-67
2022/03/11 07:27:01;;;;;;;10.43;7.37;;;;;;;;;;5135442;27;20482;-68
2022/03/11 07:29:28;;;;;;;10.53;7.50;;;;;;;;;;5134574;27;20449;-67
2022/03/11 07:31:55;;;;;;;13.80;7.40;;;;;;;;;;5134417;27;20539;-67
2022/03/11 07:34:26;;;;;;;11.87;8.33;;;;;;;;;;5135337;27;20474;-67
2022/03/11 07:36:53;;;;;;;11.23;6.10;;;;;;;;;;5135238;27;20443;-67
2022/03/11 07:39:20;;;;;;;15.57;7.03;;;;;;;;;;5135515;27;20845;-67
2022/03/11 07:41:48;;;;;;;12.40;6.93;;;;;;;;;;5137143;27;20507;-67
2022/03/11 07:44:15;;;;;;;9.53;6.70;;;;;;;;;;5124281;27;20473;-67
2022/03/11 07:46:42;;;;;;;11.37;7.23;;;;;;;;;;5134966;27;20490;-66
2022/03/11 07:49:10;;;;;;;11.23;6.87;;;;;;;;;;5134865;27;20532;-67
2022/03/11 07:51:39;;;;;;;12.77;6.93;;;;;;;;;;5133848;27;20463;-67
2022/03/11 07:54:06;;;;;;;10.90;6.97;;;;;;;;;;5134240;27;20865;-67
2022/03/11 07:56:33;;;;;;;10.63;7.13;;;;;;;;;;5133452;27;20478;-67
2022/03/11 07:59:02;;;;;;;13.00;7.43;;;;;;;;;;5134505;27;20525;-68
2022/03/11 08:01:29;;;;;;;9.60;6.43;;;;;;;;;;5133448;27;20449;-67
2022/03/11 08:03:56;;;;;;;9.97;6.70;;;;;;;;;;5133684;27;20481;-68
2022/03/11 08:06:24;;;;;;;14.10;7.33;;;;;;;;;;5133802;27;20446;-67
2022/03/11 08:08:52;;;;;;;14.10;8.10;;;;;;;;;;5134828;27;20528;-68
2022/03/11 08:11:19;;;;;;;9.30;6.23;;;;;;;;;;5134573;27;20499;-68
2022/03/11 08:13:46;;;;;;;10.80;7.80;;;;;;;;;;5133426;27;20507;-68
2022/03/11 08:16:14;;;;;;;11.97;7.77;;;;;;;;;;5133840;27;20440;-68
2022/03/11 08:18:42;;;;;;;11.07;7.67;;;;;;;;;;5133423;27;20447;-68
2022/03/11 08:21:10;;;;;;;15.70;6.63;;;;;;;;;;5133848;27;20459;-68
2022/03/11 08:23:39;;;;;;;10.57;7.27;;;;;;;;;;5133256;27;20930;-68
2022/03/11 08:26:08;;;;;;;9.53;7.00;;;;;;;;;;5134327;27;20947;-68
2022/03/11 08:28:35;;;;;;;9.50;7.37;;;;;;;;;;5133424;27;20479;-67
2022/03/11 08:31:02;;;;;;;10.70;7.10;;;;;;;;;;5133790;27;20503;-68
2022/03/11 08:33:30;;;;;;;14.53;7.13;;;;;;;;;;5132772;27;20530;-68
2022/03/11 08:35:58;;;;;;;9.33;7.10;;;;;;;;;;5133698;27;20451;-68
2022/03/11 08:38:25;;;;;;;11.80;7.07;;;;;;;;;;5133632;27;20807;-67
2022/03/11 08:40:52;;;;;;;12.83;8.60;;;;;;;;;;5133232;27;20533;-67
2022/03/11 08:43:22;;;;;;;9.97;7.30;;;;;;;;;;5133390;27;20451;-67
2022/03/11 08:45:50;;;;;;;9.93;7.20;;;;;;;;;;5133141;27;20497;-67
2022/03/11 08:48:18;;;;;;;11.20;6.53;;;;;;;;;;5133411;27;20494;-67
2022/03/11 08:50:45;;;;;;;10.53;7.43;;;;;;;;;;5132361;27;20445;-67
2022/03/11 08:53:12;;;;;;;8.47;6.37;;;;;;;;;;5133180;27;20441;-68
2022/03/11 08:55:39;;;;;;;12.33;7.73;;;;;;;;;;5132214;27;20458;-67
2022/03/11 08:58:06;;;;;;;14.43;7.40;;;;;;;;;;5133057;27;20956;-68
2022/03/11 09:00:35;;;;;;;12.10;7.87;;;;;;;;;;5132491;27;20442;-67
2022/03/11 09:03:02;;;;;;;11.60;7.27;;;;;;;;;;5133042;27;20452;-68
2022/03/11 09:05:29;;;;;;;9.80;6.73;;;;;;;;;;5120239;27;20439;-68
2022/03/11 09:07:58;;;;;;;12.80;8.60;;;;;;;;;;5133136;27;20571;-68
2022/03/11 09:10:25;;;;;;;14.97;8.90;;;;;;;;;;5133003;27;20805;-68
2022/03/11 09:12:52;;;;;;;10.77;8.30;;;;;;;;;;5133178;27;20540;-68
2022/03/11 09:15:19;;;;;;;12.07;7.23;;;;;;;;;;5133456;27;20445;-68
2022/03/11 09:17:48;;;;;;;10.83;7.80;;;;;;;;;;5132298;27;20450;-68
2022/03/11 09:20:16;;;;;;;13.23;7.10;;;;;;;;;;5133264;27;20439;-68
2022/03/11 09:22:43;;;;;;;9.03;7.47;;;;;;;;;;5131905;27;20470;-68
2022/03/11 09:25:11;;;;;;;10.20;7.20;;;;;;;;;;5133072;27;20447;-68
2022/03/11 09:27:39;;;;;;;11.43;7.60;;;;;;;;;;5131551;27;20483;-68
2022/03/11 09:30:07;;;;;;;9.80;7.57;;;;;;;;;;5133079;27;20853;-68
2022/03/11 09:32:36;;;;;;;12.40;7.07;;;;;;;;;;5131544;27;20451;-68
2022/03/11 09:35:05;;;;;;;10.10;7.30;;;;;;;;;;5132857;27;20477;-68
2022/03/11 09:37:32;;;;;;;12.80;8.50;;;;;;;;;;5131586;27;20938;-68
2022/03/11 09:39:59;;;;;;;12.30;7.80;;;;;;;;;;5132512;27;20782;-68
2022/03/11 09:42:26;;;;;;;12.47;7.33;;;;;;;;;;5131490;27;20567;-68
2022/03/11 09:44:54;;;;;;;10.60;6.30;;;;;;;;;;5132266;27;20526;-68
2022/03/11 09:47:22;;;;;;;8.77;7.00;;;;;;;;;;5131794;27;20559;-68
2022/03/11 09:49:50;;;;;;;10.17;7.23;;;;;;;;;;5131539;27;20447;-68
2022/03/11 09:52:19;;;;;;;11.90;7.90;;;;;;;;;;5131368;27;20454;-68
2022/03/11 09:54:47;;;;;;;12.00;7.60;;;;;;;;;;5131199;27;20452;-68
2022/03/11 09:57:17;;;;;;;14.77;7.60;;;;;;;;;;5132139;27;20469;-68
2022/03/11 09:59:44;;;;;;;11.97;7.50;;;;;;;;;;5131656;27;20474;-69
2022/03/11 10:02:15;;;;;;;8.40;6.60;;;;;;;;;;5117243;27;20454;-68
2022/03/11 10:04:49;;;;;;;10.13;6.97;;;;;;;;;;5131311;27;20471;-68
2022/03/11 10:07:25;;;;;;;15.80;7.57;;;;;;;;;;5131861;27;20531;-66
2022/03/11 10:09:52;;;;;;;12.20;7.80;;;;;;;;;;5132034;27;20438;-68
2022/03/11 10:12:24;;;;;;;9.80;6.53;;;;;;;;;;5131969;27;20450;-67
2022/03/11 10:15:01;;;;;;;9.83;6.87;;;;;;;;;;5132230;27;20446;-68
2022/03/11 10:17:30;;;;;;;9.90;6.97;;;;;;;;;;5131215;27;20474;-67
2022/03/11 10:20:02;;;;;;;10.20;6.50;;;;;;;;;;5131762;27;20449;-68
2022/03/11 10:22:31;;;;;;;8.40;6.60;;;;;;;;;;5130378;27;20478;-68
2022/03/11 10:25:00;;;;;;;11.13;7.60;;;;;;;;;;5131735;27;20534;-67
2022/03/11 10:27:27;;;;;;;12.20;7.27;;;;;;;;;;5131059;28;20946;-67
2022/03/11 10:29:57;;;;;;;9.60;6.57;;;;;;;;;;5132100;28;20475;-68
2022/03/11 10:32:25;;;;;;;11.20;7.60;;;;;;;;;;5131181;28;20789;-67
2022/03/11 10:34:52;;;;;;;11.90;7.50;;;;;;;;;;5132201;28;20454;-67
2022/03/11 10:37:20;;;;;;;9.97;7.03;;;;;;;;;;5132030;28;20450;-68
2022/03/11 10:39:49;;;;;;;10.27;7.20;;;;;;;;;;5134678;27;20438;-68
2022/03/11 10:42:20;;;;;;;11.00;6.80;;;;;;;;;;5135589;27;20773;-68
2022/03/11 10:44:58;;;;;;;10.47;7.30;;;;;;;;;;5135210;27;20608;-67
2022/03/11 10:47:26;;;;;;;11.50;7.23;;;;;;;;;;5135578;27;20495;-68
2022/03/11 10:49:53;;;;;;;15.33;7.10;;;;;;;;;;5135533;27;20453;-68
2022/03/11 10:52:29;;;;;;;9.60;7.00;;;;;;;;;;5135434;27;20522;-67
2022/03/11 10:54:58;;;;;;;20.13;8.13;;;;;;;;;;5135465;27;20441;-68
2022/03/11 10:57:35;;;;;;;10.67;8.07;;;;;;;;;;5135508;27;20495;-68
2022/03/11 11:00:21;;;;;;;20.13;8.27;;;;;;;;;;5135476;27;21031;-68
2022/03/11 11:02:49;;;;;;;9.90;7.43;;;;;;;;;;5134293;27;20523;-68
2022/03/11 11:05:16;;;;;;;13.30;7.73;;;;;;;;;;5135478;27;20492;-68
2022/03/11 11:07:43;;;;;;;8.23;6.70;;;;;;;;;;5134437;27;21333;-68
2022/03/11 11:10:13;;;;;;;13.13;7.43;;;;;;;;;;5135815;27;20525;-68
2022/03/11 11:12:40;;;;;;;9.50;7.10;;;;;;;;;;5134547;27;20938;-68
2022/03/11 11:15:08;;;;;;;10.33;7.33;;;;;;;;;;5122349;27;20465;-68
2022/03/11 11:17:37;;;;;;;12.20;7.60;;;;;;;;;;5134962;27;20485;-68
2022/03/11 11:20:05;;;;;;;10.60;7.40;;;;;;;;;;5135434;27;20453;-69
2022/03/11 11:22:33;;;;;;;9.13;7.20;;;;;;;;;;5134406;27;20565;-67
2022/03/11 11:25:01;;;;;;;11.53;7.77;;;;;;;;;;5135371;27;20447;-67
2022/03/11 11:27:31;;;;;;;10.00;7.03;;;;;;;;;;5134355;27;20494;-69
2022/03/11 11:29:59;;;;;;;9.70;7.13;;;;;;;;;;5135138;27;20529;-67
2022/03/11 11:32:26;;;;;;;12.47;7.90;;;;;;;;;;5133917;27;20977;-66
2022/03/11 11:34:53;;;;;;;14.43;8.20;;;;;;;;;;5135539;27;20530;-67
2022/03/11 11:37:37;;;;;;;9.53;7.40;;;;;;;;;;5135485;27;20546;-68
2022/03/11 11:40:18;;;;;;;12.07;8.20;;;;;;;;;;5135025;27;20566;-68
2022/03/11 11:43:00;;;;;;;11.17;8.27;;;;;;;;;;5122675;27;20491;-67
2022/03/11 11:45:41;;;;;;;13.20;8.10;;;;;;;;;;5135968;27;20473;-68
2022/03/11 11:48:29;;;;;;;15.43;8.23;;;;;;;;;;5135750;27;20471;-68
2022/03/11 11:50:56;;;;;;;11.50;8.43;;;;;;;;;;5120593;27;20453;-67
2022/03/11 11:53:33;;;;;;;11.27;7.93;;;;;;;;;;5134351;27;20445;-67
2022/03/11 11:56:00;;;;;;;18.40;8.67;;;;;;;;;;5134893;27;20443;-67
2022/03/11 11:58:30;;;;;;;11.00;8.80;;;;;;;;;;5133605;27;20461;-67
2022/03/11 12:00:59;;;;;;;10.37;7.50;;;;;;;;;;5134271;27;20451;-67
2022/03/11 12:03:41;;;;;;;10.63;8.30;;;;;;;;;;5133070;27;20481;-67
2022/03/11 12:06:08;;;;;;;11.73;7.20;;;;;;;;;;5133424;27;20442;-67
2022/03/11 12:08:49;;;;;;;12.03;9.60;;;;;;;;;;5133850;27;20486;-68
2022/03/11 12:11:42;;;;;;;15.10;8.27;;;;;;;;;;5134340;27;20443;-67
2022/03/11 12:14:09;;;;;;;16.27;9.23;;;;;;;;;;5115072;27;20557;-68
2022/03/11 12:16:55;;;;;;;13.70;7.70;;;;;;;;;;5133512;27;20534;-67
2022/03/11 12:19:37;;;;;;;19.30;8.70;;;;;;;;;;5134013;27;20541;-67
2022/03/11 12:22:19;;;;;;;14.13;7.93;;;;;;;;;;5130576;27;21035;-67
2022/03/11 12:24:58;;;;;;;17.03;9.30;;;;;;;;;;5133314;27;20526;-67
2022/03/11 12:27:40;;;;;;;13.47;9.43;;;;;;;;;;5133321;27;20470;-67
2022/03/11 12:30:10;;;;;;;10.40;7.60;;;;;;;;;;5117082;27;20486;-68
2022/03/11 12:32:39;;;;;;;14.50;8.37;;;;;;;;;;5132766;27;20508;-67
2022/03/11 12:35:06;;;;;;;10.27;8.40;;;;;;;;;;5134281;27;20443;-67
2022/03/11 12:37:34;;;;;;;12.17;7.90;;;;;;;;;;5132929;27;20491;-67
2022/03/11 12:40:02;;;;;;;13.80;9.00;;;;;;;;;;5133770;27;20473;-67
2022/03/11 12:42:38;;;;;;;11.73;9.33;;;;;;;;;;5131980;27;20538;-67
2022/03/11 12:45:07;;;;;;;11.00;7.87;;;;;;;;;;5133226;27;20458;-68
2022/03/11 12:47:37;;;;;;;12.00;9.23;;;;;;;;;;5132598;27;20539;-68
2022/03/11 12:50:06;;;;;;;10.23;8.17;;;;;;;;;;5133099;27;20485;-68
2022/03/11 12:52:37;;;;;;;11.73;8.13;;;;;;;;;;5132553;27;20537;-68
2022/03/11 12:55:20;;;;;;;11.67;8.80;;;;;;;;;;5133517;27;20503;-68
2022/03/11 12:57:50;;;;;;;9.97;7.27;;;;;;;;;;5132343;27;20435;-68
2022/03/11 13:00:19;;;;;;;10.97;8.53;;;;;;;;;;5133263;27;20446;-67
2022/03/11 13:02:47;;;;;;;10.90;8.10;;;;;;;;;;5130433;27;20553;-68
2022/03/11 13:05:24;;;;;;;13.73;9.10;;;;;;;;;;5132796;27;20446;-69
2022/03/11 13:07:52;;;;;;;12.87;9.00;;;;;;;;;;5132995;27;20809;-68
2022/03/11 13:10:23;;;;;;;10.40;8.90;;;;;;;;;;5133115;27;20539;-68
2022/03/11 13:12:51;;;;;;;11.93;8.27;;;;;;;;;;5132129;27;20445;-68
2022/03/11 13:15:22;;;;;;;10.80;8.40;;;;;;;;;;5133135;27;20442;-68
2022/03/11 13:17:51;;;;;;;11.73;8.73;;;;;;;;;;5133273;27;20435;-69
2022/03/11 13:20:32;;;;;;;12.03;8.83;;;;;;;;;;5133302;27;20465;-67
2022/03/11 13:22:59;;;;;;;10.43;7.70;;;;;;;;;;5132330;27;20470;-67
2022/03/11 13:25:29;;;;;;;10.33;8.43;;;;;;;;;;5132272;27;20447;-67
2022/03/11 13:27:56;;;;;;;13.53;9.00;;;;;;;;;;5132955;27;20521;-67
2022/03/11 13:30:30;;;;;;;12.10;8.90;;;;;;;;;;5132999;27;20505;-67
2022/03/11 13:32:57;;;;;;;15.73;8.13;;;;;;;;;;5132206;27;20862;-67
2022/03/11 13:35:32;;;;;;;13.20;8.37;;;;;;;;;;5132478;27;20486;-67
2022/03/11 13:37:59;;;;;;;13.77;9.60;;;;;;;;;;5120342;27;20469;-68
2022/03/11 13:40:26;;;;;;;11.77;9.40;;;;;;;;;;5132028;27;20485;-67
2022/03/11 13:42:55;;;;;;;12.63;8.90;;;;;;;;;;5131852;27;20439;-68
2022/03/11 13:45:27;;;;;;;14.33;9.00;;;;;;;;;;5132527;27;20937;-67
2022/03/11 13:48:04;;;;;;;10.30;7.90;;;;;;;;;;5132266;27;20435;-68
2022/03/11 13:50:32;;;;;;;11.10;8.57;;;;;;;;;;5131075;27;20489;-68
2022/03/11 13:52:59;;;;;;;11.60;8.40;;;;;;;;;;5132083;27;20873;-68
2022/03/11 13:55:36;;;;;;;20.57;9.87;;;;;;;;;;5131741;27;20450;-68
2022/03/11 13:58:20;;;;;;;12.67;9.23;;;;;;;;;;5131902;27;20457;-68
2022/03/11 14:00:48;;;;;;;14.80;9.07;;;;;;;;;;5119891;27;21112;-67
2022/03/11 14:03:18;;;;;;;13.00;8.50;;;;;;;;;;5131460;27;20890;-68
2022/03/11 14:05:46;;;;;;;17.97;9.00;;;;;;;;;;5131510;27;20811;-68
2022/03/11 14:08:14;;;;;;;10.53;8.20;;;;;;;;;;5132360;27;20700;-68
2022/03/11 14:10:43;;;;;;;13.43;8.90;;;;;;;;;;5131465;27;20501;-68
2022/03/11 14:13:12;;;;;;;13.13;9.27;;;;;;;;;;5131447;27;20470;-68
2022/03/11 14:15:43;;;;;;;14.20;9.13;;;;;;;;;;5131637;27;20474;-68
2022/03/11 14:18:12;;;;;;;13.57;9.87;;;;;;;;;;5131749;27;20533;-68
2022/03/11 14:20:39;;;;;;;9.77;8.30;;;;;;;;;;5131534;27;20447;-68
2022/03/11 14:23:07;;;;;;;15.03;8.87;;;;;;;;;;5131123;27;20561;-68
2022/03/11 14:25:35;;;;;;;11.30;8.40;;;;;;;;;;5131585;27;20495;-68
2022/03/11 14:28:04;;;;;;;11.70;8.37;;;;;;;;;;5131734;28;20444;-68